createdAt,value
2018-12-24T00:02:42.077Z,100.00
2018-12-24T00:05:11.935Z,100.00
2018-12-24T00:10:30.213Z,100.00
2018-12-24T00:16:26.951Z,100.00
2018-12-24T00:18:56.500Z,100.00
2018-12-24T00:25:00.465Z,100.00
2018-12-24T00:27:49.649Z,100.00
2018-12-24T00:30:19.217Z,100.00
2018-12-24T00:32:48.915Z,100.00
2018-12-24T00:35:37.868Z,100.00
2018-12-24T00:38:07.424Z,100.00
2018-12-24T00:40:36.987Z,100.00
2018-12-24T00:43:06.536Z,100.00
2018-12-24T00:45:36.087Z,100.00
2018-12-24T00:48:24.760Z,100.00
2018-12-24T00:57:02.882Z,100.00
2018-12-24T00:59:32.510Z,100.00
2018-12-24T01:08:09.837Z,100.00
2018-12-24T01:10:39.400Z,100.00
2018-12-24T01:13:08.943Z,100.00
2018-12-24T01:15:57.887Z,100.00
2018-12-24T01:18:27.795Z,100.00
2018-12-24T01:20:57.353Z,100.00
2018-12-24T01:23:26.895Z,100.00
2018-12-24T01:26:15.836Z,100.00
2018-12-24T01:29:04.519Z,100.00
2018-12-24T01:31:53.452Z,100.00
2018-12-24T01:34:23.005Z,100.00
2018-12-24T01:36:52.826Z,100.00
2018-12-24T01:39:22.385Z,100.00
2018-12-24T01:41:52.226Z,100.00
2018-12-24T01:44:21.774Z,100.00
2018-12-24T01:47:10.796Z,100.00
2018-12-24T01:49:59.751Z,100.00
2018-12-24T01:52:48.458Z,100.00
2018-12-24T01:58:06.440Z,100.00
2018-12-24T02:00:36.023Z,100.00
2018-12-24T02:03:24.941Z,100.00
2018-12-24T02:05:54.519Z,100.00
2018-12-24T02:08:24.062Z,100.00
2018-12-24T02:10:53.616Z,100.00
2018-12-24T02:13:24.787Z,100.00
2018-12-24T02:15:54.350Z,100.00
2018-12-24T02:18:24.213Z,100.00
2018-12-24T02:20:53.779Z,100.00
2018-12-24T02:23:23.331Z,100.00
2018-12-24T02:25:52.892Z,100.00
2018-12-24T02:28:22.446Z,100.00
2018-12-24T02:30:51.996Z,100.00
2018-12-24T02:33:40.973Z,100.00
2018-12-24T02:36:10.538Z,100.00
2018-12-24T02:38:40.087Z,100.00
2018-12-24T02:41:10.036Z,100.00
2018-12-24T02:43:39.608Z,100.00
2018-12-24T02:46:09.121Z,100.00
2018-12-24T02:48:38.979Z,100.00
2018-12-24T02:51:08.549Z,100.00
2018-12-24T02:53:38.087Z,100.00
2018-12-24T02:56:07.650Z,100.00
2018-12-24T02:58:37.217Z,100.00
2018-12-24T03:01:06.756Z,100.00
2018-12-24T03:09:26.114Z,100.00
2018-12-24T03:11:55.668Z,100.00
2018-12-24T03:14:25.576Z,100.00
2018-12-24T03:16:55.096Z,100.00
2018-12-24T03:19:44.016Z,100.00
2018-12-24T03:22:32.977Z,100.00
2018-12-24T03:25:02.544Z,100.00
2018-12-24T03:33:20.558Z,100.00
2018-12-24T03:38:38.512Z,100.00
2018-12-24T03:41:08.453Z,100.00
2018-12-24T03:43:57.397Z,100.00
2018-12-24T03:46:26.942Z,100.00
2018-12-24T03:49:35.256Z,100.00
2018-12-24T03:52:24.193Z,100.00
2018-12-24T03:54:53.785Z,100.00
2018-12-24T03:57:42.481Z,100.00
2018-12-24T04:00:31.162Z,100.00
2018-12-24T04:05:56.355Z,100.00
2018-12-24T04:08:25.921Z,100.00
2018-12-24T04:10:55.476Z,100.00
2018-12-24T04:13:26.668Z,100.00
2018-12-24T04:16:15.585Z,100.00
2018-12-24T04:18:46.797Z,100.00
2018-12-24T04:21:16.688Z,100.00
2018-12-24T04:23:46.587Z,100.00
2018-12-24T04:26:16.140Z,100.00
2018-12-24T04:31:40.500Z,100.00
2018-12-24T04:34:29.706Z,100.00
2018-12-24T04:39:54.231Z,100.00
2018-12-24T04:42:23.791Z,100.00
2018-12-24T04:45:12.702Z,100.00
2018-12-24T04:47:42.259Z,100.00
2018-12-24T04:53:00.324Z,100.00
2018-12-24T04:55:31.484Z,100.00
2018-12-24T04:58:01.047Z,100.00
2018-12-24T05:00:31.010Z,100.00
2018-12-24T05:03:00.688Z,100.00
2018-12-24T05:05:30.247Z,100.00
2018-12-24T05:07:59.830Z,100.00
2018-12-24T05:10:29.658Z,100.00
2018-12-24T05:12:59.209Z,100.00
2018-12-24T05:15:28.776Z,100.00
2018-12-24T05:17:58.348Z,100.00
2018-12-24T05:20:28.184Z,100.00
2018-12-24T05:22:58.091Z,100.00
2018-12-24T05:25:27.651Z,100.00
2018-12-24T05:27:57.203Z,100.00
2018-12-24T05:30:26.751Z,100.00
2018-12-24T05:32:56.315Z,100.00
2018-12-24T05:35:25.873Z,100.00
2018-12-24T05:37:55.428Z,100.00
2018-12-24T05:40:25.266Z,100.00
2018-12-24T05:42:54.825Z,100.00
2018-12-24T05:45:24.377Z,100.00
2018-12-24T05:47:53.925Z,100.00
2018-12-24T05:50:23.478Z,100.00
2018-12-24T05:52:53.050Z,100.00
2018-12-24T05:55:22.600Z,100.00
2018-12-24T05:57:52.152Z,100.00
2018-12-24T06:00:21.698Z,100.00
2018-12-24T06:02:51.287Z,100.00
2018-12-24T06:05:20.837Z,100.00
2018-12-24T06:07:50.393Z,100.00
2018-12-24T06:10:19.960Z,100.00
2018-12-24T06:12:49.859Z,100.00
2018-12-24T06:15:19.408Z,100.00
2018-12-24T06:17:48.970Z,100.00
2018-12-24T06:20:18.535Z,100.00
2018-12-24T06:22:48.108Z,100.00
2018-12-24T06:25:19.310Z,100.00
2018-12-24T06:28:08.520Z,100.00
2018-12-24T06:30:38.062Z,100.00
2018-12-24T06:33:27.013Z,100.00
2018-12-24T06:36:15.950Z,100.00
2018-12-24T06:41:39.955Z,100.00
2018-12-24T06:44:09.519Z,100.00
2018-12-24T06:46:39.367Z,100.00
2018-12-24T06:49:08.955Z,100.00
2018-12-24T06:51:38.811Z,100.00
2018-12-24T06:54:08.394Z,100.00
2018-12-24T06:56:37.937Z,100.00
2018-12-24T06:59:07.513Z,100.00
2018-12-24T07:01:37.063Z,100.00
2018-12-24T07:04:06.664Z,100.00
2018-12-24T07:06:55.346Z,100.00
2018-12-24T07:09:44.265Z,100.00
2018-12-24T07:12:13.847Z,100.00
2018-12-24T07:17:38.018Z,100.00
2018-12-24T07:20:07.592Z,100.00
2018-12-24T07:22:37.157Z,100.00
2018-12-24T07:28:20.738Z,100.00
2018-12-24T07:31:30.346Z,100.00
2018-12-24T07:34:19.636Z,100.00
2018-12-24T07:36:49.193Z,100.00
2018-12-24T07:39:18.758Z,100.00
2018-12-24T07:41:48.309Z,100.00
2018-12-24T07:44:24.099Z,100.00
2018-12-24T07:47:08.536Z,100.00
2018-12-24T07:49:38.115Z,100.00
2018-12-24T07:52:07.695Z,100.00
2018-12-24T07:57:50.648Z,100.00
2018-12-24T08:00:20.208Z,100.00
2018-12-24T08:02:50.079Z,100.00
2018-12-24T08:05:19.691Z,100.00
2018-12-24T08:07:49.248Z,100.00
2018-12-24T08:10:38.203Z,100.00
2018-12-24T08:13:07.784Z,100.00
2018-12-24T08:15:37.356Z,100.00
2018-12-24T08:18:06.912Z,100.00
2018-12-24T08:20:36.747Z,100.00
2018-12-24T08:23:06.305Z,100.00
2018-12-24T08:25:36.104Z,100.00
2018-12-24T08:28:05.984Z,100.00
2018-12-24T08:30:55.265Z,100.00
2018-12-24T08:33:44.210Z,100.00
2018-12-24T08:36:13.781Z,100.00
2018-12-24T08:38:55.208Z,100.00
2018-12-24T08:44:28.686Z,100.00
2018-12-24T08:46:58.652Z,100.00
2018-12-24T08:49:28.225Z,100.00
2018-12-24T08:51:57.792Z,100.00
2018-12-24T08:54:27.674Z,100.00
2018-12-24T08:56:57.248Z,100.00
2018-12-24T08:59:26.873Z,100.00
2018-12-24T09:01:58.100Z,100.00
2018-12-24T09:04:47.375Z,100.00
2018-12-24T09:07:17.182Z,100.00
2018-12-24T09:09:46.931Z,100.00
2018-12-24T09:12:16.485Z,100.00
2018-12-24T09:14:50.207Z,100.00
2018-12-24T09:17:36.724Z,100.00
2018-12-24T09:20:52.613Z,100.00
2018-12-24T09:23:36.991Z,100.00
2018-12-24T09:26:06.555Z,100.00
2018-12-24T09:28:36.117Z,100.00
2018-12-24T09:31:05.737Z,100.00
2018-12-24T09:33:35.247Z,100.00
2018-12-24T09:36:04.826Z,100.00
2018-12-24T09:38:34.358Z,100.00
2018-12-24T09:41:42.672Z,100.00
2018-12-24T09:44:12.226Z,100.00
2018-12-24T09:46:41.785Z,100.00
2018-12-24T09:49:11.337Z,100.00
2018-12-24T09:51:41.188Z,100.00
2018-12-24T09:54:10.730Z,100.00
2018-12-24T09:56:40.289Z,100.00
2018-12-24T09:59:29.232Z,100.00
2018-12-24T10:01:58.783Z,100.00
2018-12-24T10:05:08.646Z,100.00
2018-12-24T10:08:18.254Z,100.00
2018-12-24T10:10:47.828Z,100.00
2018-12-24T10:13:17.700Z,100.00
2018-12-24T10:15:47.251Z,100.00
2018-12-24T10:18:17.128Z,100.00
2018-12-24T10:20:46.691Z,100.00
2018-12-24T10:23:16.543Z,100.00
2018-12-24T10:25:46.122Z,100.00
2018-12-24T10:28:35.025Z,100.00
2018-12-24T10:31:04.573Z,100.00
2018-12-24T10:33:34.136Z,100.00
2018-12-24T10:36:03.713Z,100.00
2018-12-24T10:38:33.267Z,100.00
2018-12-24T10:41:02.849Z,100.00
2018-12-24T10:43:32.508Z,100.00
2018-12-24T10:46:02.083Z,100.00
2018-12-24T10:48:31.648Z,100.00
2018-12-24T10:51:01.301Z,100.00
2018-12-24T10:53:30.834Z,100.00
2018-12-24T10:56:00.409Z,100.00
2018-12-24T10:58:30.068Z,100.00
2018-12-24T11:00:59.675Z,100.00
2018-12-24T11:03:29.470Z,100.00
2018-12-24T11:05:59.291Z,100.00
2018-12-24T11:08:28.924Z,100.00
2018-12-24T11:10:58.473Z,100.00
2018-12-24T11:13:28.059Z,100.00
2018-12-24T11:15:57.608Z,100.00
2018-12-24T11:18:27.171Z,96.17
2018-12-24T11:20:57.090Z,97.42
2018-12-24T11:23:26.902Z,97.59
2018-12-24T11:25:56.470Z,97.91
2018-12-24T11:28:26.032Z,99.68
2018-12-24T11:30:55.593Z,97.92
2018-12-24T11:33:25.141Z,97.71
2018-12-24T11:35:55.049Z,99.09
2018-12-24T11:38:24.606Z,100.00
2018-12-24T11:40:54.181Z,99.37
2018-12-24T11:43:24.086Z,100.00
2018-12-24T11:45:53.654Z,99.25
2018-12-24T11:48:23.221Z,98.58
2018-12-24T11:50:52.797Z,99.31
2018-12-24T11:53:22.336Z,98.83
2018-12-24T11:56:11.231Z,100.00
2018-12-24T11:58:40.841Z,98.19
2018-12-24T12:01:10.388Z,97.22
2018-12-24T12:03:39.935Z,98.16
2018-12-24T12:06:09.494Z,99.29
2018-12-24T12:08:39.034Z,99.18
2018-12-24T12:11:08.604Z,100.00
2018-12-24T12:13:38.174Z,100.00
2018-12-24T12:16:07.751Z,100.00
2018-12-24T12:18:37.328Z,100.00
2018-12-24T12:21:06.893Z,100.00
2018-12-24T12:23:36.499Z,100.00
2018-12-24T12:26:06.069Z,100.00
2018-12-24T12:28:35.712Z,100.00
2018-12-24T12:31:05.312Z,100.00
2018-12-24T12:33:35.999Z,100.00
2018-12-24T12:36:25.524Z,100.00
2018-12-24T12:38:55.077Z,100.00
2018-12-24T12:41:24.654Z,100.00
2018-12-24T12:43:54.206Z,100.00
2018-12-24T12:46:24.123Z,100.00
2018-12-24T12:48:53.677Z,100.00
2018-12-24T12:51:23.541Z,100.00
2018-12-24T12:53:53.163Z,100.00
2018-12-24T12:56:42.074Z,100.00
2018-12-24T12:59:11.622Z,100.00
2018-12-24T13:01:41.539Z,100.00
2018-12-24T13:04:11.083Z,99.50
2018-12-24T13:06:40.641Z,100.00
2018-12-24T13:09:10.188Z,100.00
2018-12-24T13:11:59.184Z,97.81
2018-12-24T13:14:28.806Z,97.68
2018-12-24T13:16:58.372Z,96.70
2018-12-24T13:19:27.946Z,96.79
2018-12-24T13:22:04.254Z,97.61
2018-12-24T13:24:48.465Z,97.35
2018-12-24T13:27:18.036Z,97.28
2018-12-24T13:29:47.617Z,98.18
2018-12-24T13:32:17.512Z,96.99
2018-12-24T13:34:47.064Z,96.06
2018-12-24T13:37:16.620Z,94.92
2018-12-24T13:39:46.258Z,97.54
2018-12-24T13:42:15.815Z,98.97
2018-12-24T13:44:45.366Z,96.04
2018-12-24T13:47:14.946Z,95.49
2018-12-24T13:49:52.107Z,95.54
2018-12-24T13:52:42.556Z,95.90
2018-12-24T13:55:12.105Z,94.90
2018-12-24T13:57:41.663Z,94.20
2018-12-24T14:00:11.265Z,94.39
2018-12-24T14:02:40.819Z,95.16
2018-12-24T14:05:10.660Z,95.81
2018-12-24T14:07:40.253Z,96.12
2018-12-24T14:10:10.101Z,95.33
2018-12-24T14:12:39.658Z,96.41
2018-12-24T14:15:09.250Z,96.35
2018-12-24T14:17:38.769Z,96.59
2018-12-24T14:20:08.622Z,97.57
2018-12-24T14:22:38.185Z,96.64
2018-12-24T14:25:07.749Z,96.80
2018-12-24T14:27:37.319Z,96.27
2018-12-24T14:30:26.255Z,96.53
2018-12-24T14:32:55.814Z,96.61
2018-12-24T14:35:25.362Z,95.90
2018-12-24T14:37:54.912Z,97.20
2018-12-24T14:40:24.468Z,97.07
2018-12-24T14:42:54.037Z,96.81
2018-12-24T14:45:23.583Z,96.85
2018-12-24T14:48:06.359Z,97.60
2018-12-24T14:50:36.161Z,97.43
2018-12-24T14:53:05.749Z,98.69
2018-12-24T14:55:35.373Z,99.61
2018-12-24T14:58:25.958Z,100.00
2018-12-24T15:00:55.518Z,100.00
2018-12-24T15:03:25.203Z,100.00
2018-12-24T15:05:54.751Z,100.00
2018-12-24T15:08:24.342Z,100.00
2018-12-24T15:10:53.900Z,100.00
2018-12-24T15:13:23.461Z,97.99
2018-12-24T15:15:53.076Z,97.26
2018-12-24T15:18:22.655Z,94.90
2018-12-24T15:20:52.475Z,93.22
2018-12-24T15:23:22.042Z,92.91
2018-12-24T15:26:10.917Z,92.68
2018-12-24T15:28:40.474Z,90.89
2018-12-24T15:31:10.034Z,90.20
2018-12-24T15:33:39.609Z,91.55
2018-12-24T15:36:09.483Z,90.44
2018-12-24T15:38:39.067Z,90.71
2018-12-24T15:41:08.931Z,89.63
2018-12-24T15:43:38.481Z,91.66
2018-12-24T15:46:08.033Z,90.28
2018-12-24T15:48:39.214Z,90.16
2018-12-24T15:51:08.836Z,91.32
2018-12-24T15:53:38.469Z,89.70
2018-12-24T15:56:27.674Z,91.28
2018-12-24T15:58:57.234Z,91.12
2018-12-24T16:01:26.793Z,92.27
2018-12-24T16:03:56.598Z,92.50
2018-12-24T16:06:26.212Z,90.69
2018-12-24T16:08:56.066Z,90.36
2018-12-24T16:11:25.614Z,89.89
2018-12-24T16:13:55.189Z,91.28
2018-12-24T16:16:24.737Z,91.73
2018-12-24T16:18:54.636Z,90.55
2018-12-24T16:21:24.478Z,90.77
2018-12-24T16:23:54.036Z,90.83
2018-12-24T16:26:23.580Z,90.66
2018-12-24T16:28:53.139Z,90.48
2018-12-24T16:31:22.994Z,90.85
2018-12-24T16:33:52.571Z,91.32
2018-12-24T16:36:22.424Z,92.57
2018-12-24T16:38:51.983Z,90.93
2018-12-24T16:41:40.863Z,91.73
2018-12-24T16:44:10.486Z,92.40
2018-12-24T16:46:40.387Z,93.31
2018-12-24T16:49:09.949Z,92.46
2018-12-24T16:51:39.493Z,93.24
2018-12-24T16:54:09.058Z,92.89
2018-12-24T16:56:38.603Z,91.54
2018-12-24T16:59:08.178Z,91.31
2018-12-24T17:01:37.979Z,92.80
2018-12-24T17:04:07.549Z,93.23
2018-12-24T17:06:37.116Z,92.88
2018-12-24T17:09:46.737Z,91.69
2018-12-24T17:12:35.658Z,91.57
2018-12-24T17:15:45.283Z,90.26
2018-12-24T17:18:14.891Z,91.67
2018-12-24T17:20:44.776Z,91.11
2018-12-24T17:23:14.592Z,91.88
2018-12-24T17:26:03.522Z,90.65
2018-12-24T17:28:33.097Z,91.56
2018-12-24T17:31:02.673Z,91.42
2018-12-24T17:33:32.212Z,90.51
2018-12-24T17:36:01.754Z,90.35
2018-12-24T17:38:31.304Z,91.01
2018-12-24T17:41:02.484Z,90.77
2018-12-24T17:43:32.068Z,90.99
2018-12-24T17:46:01.593Z,92.02
2018-12-24T17:48:31.439Z,90.54
2018-12-24T17:51:00.983Z,91.32
2018-12-24T17:53:30.539Z,90.64
2018-12-24T17:56:00.352Z,90.69
2018-12-24T17:58:29.922Z,89.77
2018-12-24T18:00:59.464Z,90.19
2018-12-24T18:03:29.108Z,88.85
2018-12-24T18:05:58.922Z,90.49
2018-12-24T18:12:15.040Z,91.08
2018-12-24T18:15:04.253Z,91.31
2018-12-24T18:17:33.892Z,91.73
2018-12-24T18:20:03.595Z,90.40
2018-12-24T18:22:33.137Z,89.17
2018-12-24T18:25:02.733Z,90.14
2018-12-24T18:27:32.280Z,89.15
2018-12-24T18:30:01.847Z,88.64
2018-12-24T18:32:31.427Z,88.62
2018-12-24T18:35:00.980Z,88.34
2018-12-24T18:37:30.528Z,89.40
2018-12-24T18:40:19.734Z,89.86
2018-12-24T18:42:49.296Z,89.06
2018-12-24T18:45:18.874Z,89.23
2018-12-24T18:47:48.451Z,88.41
2018-12-24T18:50:18.364Z,90.31
2018-12-24T18:52:47.936Z,89.44
2018-12-24T18:55:17.500Z,89.02
2018-12-24T18:57:47.041Z,89.24
2018-12-24T19:00:16.887Z,88.39
2018-12-24T19:02:46.426Z,89.16
2018-12-24T19:08:11.963Z,88.72
2018-12-24T19:13:35.914Z,89.65
2018-12-24T19:16:24.819Z,90.43
2018-12-24T19:19:13.762Z,90.97
2018-12-24T19:22:02.964Z,91.88
2018-12-24T19:24:32.636Z,91.14
2018-12-24T19:27:02.182Z,90.64
2018-12-24T19:29:31.743Z,90.43
2018-12-24T19:32:20.629Z,90.53
2018-12-24T19:34:50.208Z,89.48
2018-12-24T19:37:20.114Z,89.35
2018-12-24T19:39:49.660Z,89.97
2018-12-24T19:42:38.615Z,89.81
2018-12-24T19:45:08.170Z,90.44
2018-12-24T19:47:37.990Z,91.19
2018-12-24T19:50:26.670Z,90.64
2018-12-24T19:55:44.673Z,88.31
2018-12-24T19:58:14.224Z,89.36
2018-12-24T20:00:43.813Z,89.86
2018-12-24T20:03:32.743Z,88.60
2018-12-24T20:06:21.717Z,88.82
2018-12-24T20:08:51.565Z,89.81
2018-12-24T20:11:21.134Z,89.48
2018-12-24T20:13:50.928Z,89.37
2018-12-24T20:16:39.905Z,88.89
2018-12-24T20:19:09.454Z,89.02
2018-12-24T20:21:39.292Z,90.42
2018-12-24T20:24:08.841Z,89.61
2018-12-24T20:26:38.792Z,89.39
2018-12-24T20:29:08.427Z,89.34
2018-12-24T20:31:38.005Z,89.86
2018-12-24T20:34:07.546Z,90.99
2018-12-24T20:39:16.974Z,91.38
2018-12-24T20:41:46.537Z,90.23
2018-12-24T20:44:35.825Z,90.14
2018-12-24T20:47:25.108Z,89.70
2018-12-24T20:49:54.665Z,89.42
2018-12-24T20:52:24.216Z,89.40
2018-12-24T20:54:53.779Z,90.28
2018-12-24T20:57:23.455Z,89.32
2018-12-24T20:59:53.058Z,89.11
2018-12-24T21:02:22.639Z,89.74
2018-12-24T21:04:52.339Z,88.75
2018-12-24T21:07:21.974Z,88.40
2018-12-24T21:09:51.869Z,90.42
2018-12-24T21:12:21.549Z,87.90
2018-12-24T21:14:51.226Z,87.89
2018-12-24T21:17:20.763Z,88.31
2018-12-24T21:20:02.899Z,88.52
2018-12-24T21:22:32.424Z,89.11
2018-12-24T21:25:02.016Z,88.77
2018-12-24T21:27:31.576Z,88.56
2018-12-24T21:30:01.531Z,88.79
2018-12-24T21:32:50.803Z,88.78
2018-12-24T21:38:14.600Z,89.67
2018-12-24T21:40:44.170Z,89.09
2018-12-24T21:43:33.146Z,88.97
2018-12-24T21:46:02.705Z,89.21
2018-12-24T21:48:32.290Z,89.75
2018-12-24T21:51:01.868Z,89.70
2018-12-24T21:53:31.696Z,90.52
2018-12-24T21:56:01.622Z,89.48
2018-12-24T21:58:31.257Z,91.28
2018-12-24T22:01:00.837Z,90.77
2018-12-24T22:03:30.625Z,90.78
2018-12-24T22:06:00.486Z,90.45
2018-12-24T22:08:30.377Z,91.49
2018-12-24T22:10:59.932Z,90.77
2018-12-24T22:13:29.827Z,91.67
2018-12-24T22:15:59.764Z,92.64
2018-12-24T22:18:48.663Z,91.79
2018-12-24T22:21:18.595Z,92.10
2018-12-24T22:23:48.143Z,92.21
2018-12-24T22:26:17.806Z,92.58
2018-12-24T22:28:47.360Z,92.43
2018-12-24T22:31:36.329Z,92.67
2018-12-24T22:34:25.538Z,92.68
2018-12-24T22:37:14.432Z,93.26
2018-12-24T22:39:44.004Z,93.96
2018-12-24T22:42:13.564Z,93.88
2018-12-24T22:44:43.118Z,94.13
2018-12-24T22:47:12.674Z,93.82
2018-12-24T22:49:42.236Z,94.11
2018-12-24T22:52:11.793Z,94.44
2018-12-24T22:54:41.347Z,94.42
2018-12-24T22:57:11.244Z,94.92
2018-12-24T23:00:00.281Z,94.99
2018-12-24T23:02:30.113Z,95.06
2018-12-24T23:04:59.726Z,95.36
2018-12-24T23:07:29.287Z,96.02
2018-12-24T23:09:58.872Z,96.05
2018-12-24T23:12:28.413Z,96.85
2018-12-24T23:14:57.980Z,97.05
2018-12-24T23:17:27.549Z,97.24
2018-12-24T23:19:57.096Z,97.71
2018-12-24T23:22:26.685Z,97.90
2018-12-24T23:24:56.244Z,98.28
2018-12-24T23:27:25.812Z,98.21
2018-12-24T23:29:55.354Z,98.07
2018-12-24T23:32:24.919Z,98.84
2018-12-24T23:34:54.468Z,98.76
2018-12-24T23:37:24.035Z,98.88
2018-12-24T23:39:53.584Z,99.35
2018-12-24T23:42:23.472Z,99.28
2018-12-24T23:44:53.029Z,98.76
2018-12-24T23:47:22.618Z,98.89
2018-12-24T23:49:52.199Z,98.74
2018-12-24T23:52:21.739Z,98.52
2018-12-24T23:54:51.316Z,98.82
2018-12-24T23:57:21.189Z,98.73
2018-12-24T23:59:50.785Z,99.06
